createdAt,value
2023-01-29T14:47:51.320Z,5.61
2023-01-29T14:50:32.820Z,5.62
2023-01-29T14:53:02.191Z,5.60
2023-01-29T14:55:40.426Z,5.46
2023-01-29T14:58:11.133Z,5.45
2023-01-29T15:00:38.719Z,5.52
2023-01-29T15:03:12.138Z,5.59
2023-01-29T15:05:39.115Z,5.65
2023-01-29T15:08:30.181Z,5.69
2023-01-29T15:11:16.529Z,5.63
2023-01-29T15:14:05.219Z,5.52
2023-01-29T15:16:35.858Z,5.54
2023-01-29T15:19:13.975Z,5.59
2023-01-29T15:22:00.406Z,5.52
2023-01-29T15:24:26.952Z,5.54
2023-01-29T15:26:54.285Z,5.55
2023-01-29T15:29:25.884Z,5.59
2023-01-29T15:31:52.577Z,5.59
2023-01-29T15:34:19.197Z,5.60
2023-01-29T15:36:46.504Z,5.63
2023-01-29T15:39:15.464Z,5.62
2023-01-29T15:41:42.540Z,5.50
2023-01-29T15:44:19.415Z,5.57
2023-01-29T15:46:49.910Z,5.62
2023-01-29T15:49:23.034Z,5.56
2023-01-29T15:51:56.827Z,5.54
2023-01-29T15:54:24.373Z,5.58
2023-01-29T15:56:52.208Z,5.55
2023-01-29T15:59:31.339Z,5.52
2023-01-29T16:01:57.950Z,5.38
2023-01-29T16:04:27.061Z,5.26
2023-01-29T16:06:54.437Z,5.31
2023-01-29T16:09:23.713Z,5.29
2023-01-29T16:11:51.428Z,5.34
2023-01-29T16:14:20.603Z,5.39
2023-01-29T16:16:48.644Z,5.41
2023-01-29T16:19:21.488Z,5.41
2023-01-29T16:21:50.701Z,5.36
2023-01-29T16:24:22.515Z,5.39
2023-01-29T16:26:50.420Z,5.43
2023-01-29T16:29:19.003Z,5.37
2023-01-29T16:31:47.147Z,5.39
2023-01-29T16:34:35.509Z,5.42
2023-01-29T16:37:03.161Z,5.27
2023-01-29T16:39:29.645Z,5.37
2023-01-29T16:42:17.610Z,5.40
2023-01-29T16:44:51.013Z,5.17
2023-01-29T16:47:23.863Z,5.03
2023-01-29T16:49:51.582Z,5.25
2023-01-29T16:52:29.706Z,5.33
2023-01-29T16:55:00.680Z,5.18
2023-01-29T16:57:30.181Z,5.29
2023-01-29T16:59:57.984Z,5.26
2023-01-29T17:02:24.514Z,5.02
2023-01-29T17:04:52.903Z,4.77
2023-01-29T17:07:22.172Z,4.70
2023-01-29T17:09:51.900Z,4.64
2023-01-29T17:12:20.028Z,4.53
2023-01-29T17:15:12.558Z,4.60
2023-01-29T17:17:39.891Z,4.69
2023-01-29T17:20:11.759Z,4.63
2023-01-29T17:22:40.704Z,4.56
2023-01-29T17:25:07.410Z,4.58
2023-01-29T17:27:33.907Z,4.48
2023-01-29T17:30:00.484Z,4.55
2023-01-29T17:32:42.908Z,4.54
2023-01-29T17:35:13.054Z,4.54
2023-01-29T17:37:39.689Z,4.53
2023-01-29T17:40:17.504Z,4.53
2023-01-29T17:42:44.077Z,4.30
2023-01-29T17:45:10.928Z,4.24
2023-01-29T17:47:37.395Z,4.30
2023-01-29T17:50:13.687Z,4.27
2023-01-29T17:52:40.245Z,4.18
2023-01-29T17:55:07.025Z,4.21
2023-01-29T17:57:33.636Z,4.22
2023-01-29T18:00:00.164Z,4.10
2023-01-29T18:02:28.986Z,4.08
2023-01-29T18:04:56.289Z,4.05
2023-01-29T18:07:22.855Z,4.04
2023-01-29T18:09:49.296Z,4.13
2023-01-29T18:12:16.008Z,4.10
2023-01-29T18:14:42.691Z,4.06
2023-01-29T18:17:09.145Z,4.06
2023-01-29T18:19:35.638Z,4.18
2023-01-29T18:22:02.377Z,3.97
2023-01-29T18:24:29.062Z,4.10
2023-01-29T18:26:55.567Z,4.01
2023-01-29T18:29:22.129Z,3.89
2023-01-29T18:31:49.468Z,3.75
2023-01-29T18:34:16.071Z,3.85
2023-01-29T18:36:46.717Z,3.77
2023-01-29T18:39:16.477Z,3.76
2023-01-29T18:41:43.004Z,3.70
2023-01-29T18:44:12.536Z,3.63
2023-01-29T18:46:39.036Z,3.60
2023-01-29T18:49:05.572Z,3.68
2023-01-29T18:51:32.653Z,3.69
2023-01-29T18:53:59.134Z,3.67
2023-01-29T18:56:25.681Z,3.71
2023-01-29T18:58:55.851Z,3.67
2023-01-29T19:01:22.566Z,3.66
2023-01-29T19:03:49.131Z,3.61
2023-01-29T19:06:15.631Z,3.81
2023-01-29T19:08:43.082Z,3.86
2023-01-29T19:11:12.399Z,3.66
2023-01-29T19:13:38.950Z,3.52
2023-01-29T19:16:09.138Z,3.59
2023-01-29T19:18:35.707Z,3.53
2023-01-29T19:21:06.326Z,3.54
2023-01-29T19:23:32.932Z,3.59
2023-01-29T19:25:59.363Z,3.52
2023-01-29T19:28:25.922Z,3.49
2023-01-29T19:30:52.426Z,3.51
2023-01-29T19:33:18.938Z,3.47
2023-01-29T19:35:45.607Z,3.49
2023-01-29T19:38:12.360Z,3.44
2023-01-29T19:40:39.156Z,3.47
2023-01-29T19:43:06.108Z,3.44
2023-01-29T19:45:43.155Z,3.54
2023-01-29T19:48:26.478Z,3.49
2023-01-29T19:50:54.629Z,3.48
2023-01-29T19:53:21.120Z,3.40
2023-01-29T19:55:48.327Z,3.48
2023-01-29T19:58:14.801Z,3.63
2023-01-29T20:00:41.313Z,3.66
2023-01-29T20:03:09.341Z,3.58
2023-01-29T20:05:37.511Z,3.55
2023-01-29T20:08:04.045Z,3.41
2023-01-29T20:10:30.547Z,3.43
2023-01-29T20:12:57.186Z,3.43
2023-01-29T20:15:23.679Z,3.36
2023-01-29T20:17:50.166Z,3.37
2023-01-29T20:20:17.612Z,3.43
2023-01-29T20:22:44.696Z,3.33
2023-01-29T20:25:13.733Z,3.35
2023-01-29T20:27:40.545Z,3.39
2023-01-29T20:30:08.219Z,3.45
2023-01-29T20:32:35.339Z,3.50
2023-01-29T20:35:01.904Z,3.37
2023-01-29T20:37:28.585Z,3.41
2023-01-29T20:39:55.016Z,3.39
2023-01-29T20:42:21.599Z,3.33
2023-01-29T20:44:48.085Z,3.35
2023-01-29T20:47:14.608Z,3.44
2023-01-29T20:49:41.069Z,3.45
2023-01-29T20:52:08.712Z,3.51
2023-01-29T20:54:35.352Z,3.42
2023-01-29T20:57:01.957Z,3.46
2023-01-29T20:59:29.256Z,3.53
2023-01-29T21:01:56.029Z,3.61
2023-01-29T21:04:22.612Z,3.89
2023-01-29T21:06:49.109Z,3.98
2023-01-29T21:09:15.657Z,4.08
2023-01-29T21:11:44.991Z,4.03
2023-01-29T21:14:11.774Z,4.09
2023-01-29T21:16:38.319Z,4.07
2023-01-29T21:19:04.895Z,3.91
2023-01-29T21:21:31.351Z,3.85
2023-01-29T21:23:58.539Z,3.81
2023-01-29T21:26:26.120Z,3.92
2023-01-29T21:28:52.664Z,4.01
2023-01-29T21:31:19.234Z,4.14
2023-01-29T21:33:45.708Z,4.24
2023-01-29T21:36:12.553Z,4.40
2023-01-29T21:38:39.837Z,4.46
2023-01-29T21:41:08.910Z,4.25
2023-01-29T21:43:35.847Z,4.29
2023-01-29T21:46:11.477Z,4.13
2023-01-29T21:48:38.933Z,4.14
2023-01-29T21:51:05.664Z,4.03
2023-01-29T21:53:32.430Z,3.87
2023-01-29T21:55:59.949Z,4.10
2023-01-29T21:58:26.444Z,4.27
2023-01-29T22:00:52.954Z,4.20
2023-01-29T22:03:19.421Z,3.91
2023-01-29T22:05:45.946Z,3.85
2023-01-29T22:08:12.410Z,4.13
2023-01-29T22:10:39.105Z,4.01
2023-01-29T22:13:05.796Z,3.83
2023-01-29T22:15:32.321Z,4.10
2023-01-29T22:17:58.855Z,4.28
2023-01-29T22:20:30.337Z,4.16
2023-01-29T22:22:58.496Z,3.84
2023-01-29T22:25:24.991Z,3.87
2023-01-29T22:27:51.679Z,3.74
2023-01-29T22:30:18.684Z,3.61
2023-01-29T22:32:45.406Z,3.79
2023-01-29T22:35:11.967Z,3.82
2023-01-29T22:37:38.476Z,3.59
2023-01-29T22:40:05.220Z,3.44
2023-01-29T22:42:31.811Z,3.47
2023-01-29T22:44:58.303Z,3.51
2023-01-29T22:47:24.779Z,3.41
2023-01-29T22:49:52.446Z,3.66
2023-01-29T22:52:22.441Z,3.65
2023-01-29T22:54:48.950Z,3.54
2023-01-29T22:57:15.581Z,3.36
2023-01-29T22:59:42.072Z,3.35
2023-01-29T23:02:09.068Z,3.31
2023-01-29T23:04:35.680Z,3.27
2023-01-29T23:07:02.437Z,3.32
2023-01-29T23:09:28.915Z,3.37
2023-01-29T23:11:55.417Z,3.45
2023-01-29T23:14:21.924Z,3.41
2023-01-29T23:16:48.403Z,3.39
2023-01-29T23:19:14.841Z,3.40
2023-01-29T23:21:41.351Z,3.37
2023-01-29T23:24:08.543Z,3.39
2023-01-29T23:26:53.753Z,3.41
2023-01-29T23:29:20.365Z,3.59
2023-01-29T23:31:47.037Z,3.45
2023-01-29T23:34:14.156Z,3.61
2023-01-29T23:36:41.033Z,3.54
2023-01-29T23:39:07.549Z,3.56
2023-01-29T23:41:34.111Z,3.33
2023-01-29T23:44:00.573Z,3.31
2023-01-29T23:46:27.103Z,3.34
2023-01-29T23:48:53.637Z,3.18
2023-01-29T23:51:20.129Z,3.36
2023-01-29T23:53:46.645Z,3.48
2023-01-29T23:56:13.471Z,3.68
2023-01-29T23:58:39.986Z,3.59
